sensor_id;sensor_type;location;lat;lon;timestamp;P1;durP1;ratioP1;P2;durP2;ratioP2
19111;SDS011;9688;51.906;8.376;2023-05-01T00:02:48;5.20;;;2.73;;
19111;SDS011;9688;51.906;8.376;2023-05-01T00:05:33;4.17;;;2.83;;
19111;SDS011;9688;51.906;8.376;2023-05-01T00:08:19;5.00;;;2.93;;
19111;SDS011;9688;51.906;8.376;2023-05-01T00:11:06;6.00;;;2.87;;
19111;SDS011;9688;51.906;8.376;2023-05-01T00:13:52;5.63;;;3.10;;
19111;SDS011;9688;51.906;8.376;2023-05-01T00:16:38;5.20;;;3.00;;
19111;SDS011;9688;51.906;8.376;2023-05-01T00:19:24;5.03;;;2.70;;
19111;SDS011;9688;51.906;8.376;2023-05-01T00:22:09;6.20;;;3.63;;
19111;SDS011;9688;51.906;8.376;2023-05-01T00:24:55;8.37;;;2.83;;
19111;SDS011;9688;51.906;8.376;2023-05-01T00:27:42;4.17;;;2.50;;
19111;SDS011;9688;51.906;8.376;2023-05-01T00:30:27;5.43;;;3.20;;
19111;SDS011;9688;51.906;8.376;2023-05-01T00:33:13;8.13;;;3.27;;
19111;SDS011;9688;51.906;8.376;2023-05-01T00:36:00;4.93;;;3.13;;
19111;SDS011;9688;51.906;8.376;2023-05-01T00:38:46;7.23;;;3.33;;
19111;SDS011;9688;51.906;8.376;2023-05-01T00:41:32;6.73;;;2.87;;
19111;SDS011;9688;51.906;8.376;2023-05-01T00:44:20;5.53;;;2.80;;
19111;SDS011;9688;51.906;8.376;2023-05-01T00:47:05;3.60;;;2.67;;
19111;SDS011;9688;51.906;8.376;2023-05-01T00:49:51;7.73;;;2.80;;
19111;SDS011;9688;51.906;8.376;2023-05-01T00:52:39;5.10;;;2.57;;
19111;SDS011;9688;51.906;8.376;2023-05-01T00:55:24;7.30;;;3.10;;
19111;SDS011;9688;51.906;8.376;2023-05-01T00:58:10;4.90;;;3.10;;
19111;SDS011;9688;51.906;8.376;2023-05-01T01:00:59;3.53;;;2.30;;
19111;SDS011;9688;51.906;8.376;2023-05-01T01:03:45;6.67;;;3.60;;
19111;SDS011;9688;51.906;8.376;2023-05-01T01:06:32;5.57;;;2.83;;
19111;SDS011;9688;51.906;8.376;2023-05-01T01:09:28;6.27;;;3.27;;
19111;SDS011;9688;51.906;8.376;2023-05-01T01:12:23;5.63;;;2.80;;
19111;SDS011;9688;51.906;8.376;2023-05-01T01:15:12;12.87;;;3.47;;
19111;SDS011;9688;51.906;8.376;2023-05-01T01:18:06;3.93;;;2.70;;
19111;SDS011;9688;51.906;8.376;2023-05-01T01:20:56;9.90;;;3.40;;
19111;SDS011;9688;51.906;8.376;2023-05-01T01:24:00;7.00;;;2.90;;
19111;SDS011;9688;51.906;8.376;2023-05-01T01:33:52;6.63;;;2.83;;
19111;SDS011;9688;51.906;8.376;2023-05-01T01:36:45;6.50;;;3.27;;
19111;SDS011;9688;51.906;8.376;2023-05-01T01:39:36;6.30;;;2.93;;
19111;SDS011;9688;51.906;8.376;2023-05-01T01:42:30;4.90;;;2.70;;
19111;SDS011;9688;51.906;8.376;2023-05-01T01:45:20;6.27;;;3.23;;
19111;SDS011;9688;51.906;8.376;2023-05-01T01:48:07;8.20;;;3.17;;
19111;SDS011;9688;51.906;8.376;2023-05-01T01:50:57;3.87;;;2.90;;
19111;SDS011;9688;51.906;8.376;2023-05-01T01:53:47;5.47;;;2.73;;
19111;SDS011;9688;51.906;8.376;2023-05-01T01:56:36;3.77;;;2.90;;
19111;SDS011;9688;51.906;8.376;2023-05-01T01:59:24;4.40;;;2.73;;
19111;SDS011;9688;51.906;8.376;2023-05-01T02:02:11;5.37;;;2.40;;
19111;SDS011;9688;51.906;8.376;2023-05-01T02:04:58;6.47;;;2.87;;
19111;SDS011;9688;51.906;8.376;2023-05-01T02:07:47;3.07;;;2.80;;
19111;SDS011;9688;51.906;8.376;2023-05-01T02:10:34;3.97;;;2.93;;
19111;SDS011;9688;51.906;8.376;2023-05-01T02:13:21;5.13;;;3.77;;
19111;SDS011;9688;51.906;8.376;2023-05-01T02:16:07;5.27;;;3.27;;
19111;SDS011;9688;51.906;8.376;2023-05-01T02:18:54;6.30;;;3.03;;
19111;SDS011;9688;51.906;8.376;2023-05-01T02:21:41;9.10;;;3.30;;
19111;SDS011;9688;51.906;8.376;2023-05-01T02:24:29;4.37;;;2.93;;
19111;SDS011;9688;51.906;8.376;2023-05-01T02:27:18;6.90;;;3.20;;
19111;SDS011;9688;51.906;8.376;2023-05-01T02:30:07;5.63;;;3.07;;
19111;SDS011;9688;51.906;8.376;2023-05-01T02:32:54;5.10;;;2.90;;
19111;SDS011;9688;51.906;8.376;2023-05-01T02:35:41;6.00;;;3.37;;
19111;SDS011;9688;51.906;8.376;2023-05-01T02:38:27;8.47;;;3.17;;
19111;SDS011;9688;51.906;8.376;2023-05-01T02:41:14;3.93;;;3.40;;
19111;SDS011;9688;51.906;8.376;2023-05-01T02:44:01;7.90;;;3.10;;
19111;SDS011;9688;51.906;8.376;2023-05-01T02:46:49;11.00;;;3.43;;
19111;SDS011;9688;51.906;8.376;2023-05-01T02:49:36;7.83;;;3.30;;
19111;SDS011;9688;51.906;8.376;2023-05-01T02:52:22;6.07;;;2.90;;
19111;SDS011;9688;51.906;8.376;2023-05-01T02:55:08;6.27;;;3.63;;
19111;SDS011;9688;51.906;8.376;2023-05-01T02:57:57;8.83;;;3.70;;
19111;SDS011;9688;51.906;8.376;2023-05-01T03:00:44;6.57;;;3.20;;
19111;SDS011;9688;51.906;8.376;2023-05-01T03:03:29;6.50;;;3.00;;
19111;SDS011;9688;51.906;8.376;2023-05-01T03:06:15;3.63;;;3.30;;
19111;SDS011;9688;51.906;8.376;2023-05-01T03:09:02;5.80;;;3.40;;
19111;SDS011;9688;51.906;8.376;2023-05-01T03:11:47;4.27;;;3.10;;
19111;SDS011;9688;51.906;8.376;2023-05-01T03:14:35;9.00;;;3.57;;
19111;SDS011;9688;51.906;8.376;2023-05-01T03:17:20;6.17;;;3.10;;
19111;SDS011;9688;51.906;8.376;2023-05-01T03:20:07;7.67;;;3.40;;
19111;SDS011;9688;51.906;8.376;2023-05-01T03:22:53;5.97;;;2.90;;
19111;SDS011;9688;51.906;8.376;2023-05-01T03:25:39;7.23;;;3.30;;
19111;SDS011;9688;51.906;8.376;2023-05-01T03:28:25;6.20;;;3.37;;
19111;SDS011;9688;51.906;8.376;2023-05-01T03:31:12;7.33;;;3.70;;
19111;SDS011;9688;51.906;8.376;2023-05-01T03:33:58;6.80;;;3.57;;
19111;SDS011;9688;51.906;8.376;2023-05-01T03:36:43;6.23;;;3.20;;
19111;SDS011;9688;51.906;8.376;2023-05-01T03:39:29;6.97;;;3.20;;
19111;SDS011;9688;51.906;8.376;2023-05-01T03:42:14;8.77;;;3.60;;
19111;SDS011;9688;51.906;8.376;2023-05-01T03:45:00;6.10;;;3.40;;
19111;SDS011;9688;51.906;8.376;2023-05-01T03:47:47;6.33;;;3.10;;
19111;SDS011;9688;51.906;8.376;2023-05-01T03:50:32;7.07;;;3.57;;
19111;SDS011;9688;51.906;8.376;2023-05-01T03:53:18;9.40;;;3.20;;
19111;SDS011;9688;51.906;8.376;2023-05-01T03:56:04;7.30;;;3.70;;
19111;SDS011;9688;51.906;8.376;2023-05-01T03:58:50;5.63;;;3.30;;
19111;SDS011;9688;51.906;8.376;2023-05-01T04:01:35;5.63;;;3.40;;
19111;SDS011;9688;51.906;8.376;2023-05-01T04:04:24;9.80;;;3.53;;
19111;SDS011;9688;51.906;8.376;2023-05-01T04:07:12;6.97;;;3.40;;
19111;SDS011;9688;51.906;8.376;2023-05-01T04:09:58;5.53;;;3.27;;
19111;SDS011;9688;51.906;8.376;2023-05-01T04:12:43;9.13;;;3.90;;
19111;SDS011;9688;51.906;8.376;2023-05-01T04:15:30;6.07;;;3.70;;
19111;SDS011;9688;51.906;8.376;2023-05-01T04:18:15;5.40;;;3.70;;
19111;SDS011;9688;51.906;8.376;2023-05-01T04:21:02;8.60;;;3.60;;
19111;SDS011;9688;51.906;8.376;2023-05-01T04:23:48;5.80;;;3.80;;
19111;SDS011;9688;51.906;8.376;2023-05-01T04:26:33;8.90;;;3.37;;
19111;SDS011;9688;51.906;8.376;2023-05-01T04:29:19;7.00;;;3.80;;
19111;SDS011;9688;51.906;8.376;2023-05-01T04:32:04;4.97;;;3.37;;
19111;SDS011;9688;51.906;8.376;2023-05-01T04:34:50;8.27;;;3.10;;
19111;SDS011;9688;51.906;8.376;2023-05-01T04:37:38;7.13;;;3.20;;
19111;SDS011;9688;51.906;8.376;2023-05-01T04:40:23;6.43;;;3.40;;
19111;SDS011;9688;51.906;8.376;2023-05-01T04:43:09;8.40;;;3.50;;
19111;SDS011;9688;51.906;8.376;2023-05-01T04:45:54;6.93;;;3.57;;
19111;SDS011;9688;51.906;8.376;2023-05-01T04:48:40;6.10;;;3.00;;
19111;SDS011;9688;51.906;8.376;2023-05-01T04:51:26;4.43;;;3.10;;
19111;SDS011;9688;51.906;8.376;2023-05-01T04:54:13;7.53;;;3.27;;
19111;SDS011;9688;51.906;8.376;2023-05-01T04:56:59;7.63;;;3.47;;
19111;SDS011;9688;51.906;8.376;2023-05-01T04:59:46;4.50;;;3.50;;
19111;SDS011;9688;51.906;8.376;2023-05-01T05:02:31;8.60;;;3.23;;
19111;SDS011;9688;51.906;8.376;2023-05-01T05:05:17;6.23;;;3.47;;
19111;SDS011;9688;51.906;8.376;2023-05-01T05:08:02;5.57;;;3.00;;
19111;SDS011;9688;51.906;8.376;2023-05-01T05:10:49;6.30;;;3.17;;
19111;SDS011;9688;51.906;8.376;2023-05-01T05:13:40;5.77;;;3.60;;
19111;SDS011;9688;51.906;8.376;2023-05-01T05:16:26;3.90;;;3.20;;
19111;SDS011;9688;51.906;8.376;2023-05-01T05:19:12;6.90;;;3.63;;
19111;SDS011;9688;51.906;8.376;2023-05-01T05:21:57;5.87;;;3.30;;
19111;SDS011;9688;51.906;8.376;2023-05-01T05:24:45;9.63;;;3.50;;
19111;SDS011;9688;51.906;8.376;2023-05-01T05:27:32;7.17;;;3.60;;
19111;SDS011;9688;51.906;8.376;2023-05-01T05:30:21;8.17;;;3.57;;
19111;SDS011;9688;51.906;8.376;2023-05-01T05:33:06;4.63;;;3.40;;
19111;SDS011;9688;51.906;8.376;2023-05-01T05:35:52;4.67;;;3.27;;
19111;SDS011;9688;51.906;8.376;2023-05-01T05:38:38;8.10;;;3.57;;
19111;SDS011;9688;51.906;8.376;2023-05-01T05:41:23;6.87;;;3.20;;
19111;SDS011;9688;51.906;8.376;2023-05-01T05:44:11;5.33;;;3.20;;
19111;SDS011;9688;51.906;8.376;2023-05-01T05:46:57;4.20;;;3.40;;
19111;SDS011;9688;51.906;8.376;2023-05-01T05:49:42;8.40;;;3.50;;
19111;SDS011;9688;51.906;8.376;2023-05-01T05:52:28;7.67;;;3.30;;
19111;SDS011;9688;51.906;8.376;2023-05-01T05:55:14;3.97;;;3.10;;
19111;SDS011;9688;51.906;8.376;2023-05-01T05:57:59;5.40;;;3.20;;
19111;SDS011;9688;51.906;8.376;2023-05-01T06:00:46;6.63;;;3.27;;
19111;SDS011;9688;51.906;8.376;2023-05-01T06:03:32;4.20;;;3.20;;
19111;SDS011;9688;51.906;8.376;2023-05-01T06:06:19;5.47;;;3.33;;
19111;SDS011;9688;51.906;8.376;2023-05-01T06:09:05;6.87;;;3.17;;
19111;SDS011;9688;51.906;8.376;2023-05-01T06:11:51;4.67;;;3.20;;
19111;SDS011;9688;51.906;8.376;2023-05-01T06:14:37;6.93;;;3.33;;
19111;SDS011;9688;51.906;8.376;2023-05-01T06:17:25;6.77;;;3.20;;
19111;SDS011;9688;51.906;8.376;2023-05-01T06:20:10;5.73;;;3.47;;
19111;SDS011;9688;51.906;8.376;2023-05-01T06:22:57;7.10;;;3.33;;
19111;SDS011;9688;51.906;8.376;2023-05-01T06:25:43;9.10;;;3.37;;
19111;SDS011;9688;51.906;8.376;2023-05-01T06:28:28;5.37;;;3.10;;
19111;SDS011;9688;51.906;8.376;2023-05-01T06:31:14;8.03;;;3.50;;
19111;SDS011;9688;51.906;8.376;2023-05-01T06:34:01;3.23;;;2.93;;
19111;SDS011;9688;51.906;8.376;2023-05-01T06:36:47;7.67;;;3.00;;
19111;SDS011;9688;51.906;8.376;2023-05-01T06:39:32;3.43;;;2.93;;
19111;SDS011;9688;51.906;8.376;2023-05-01T06:42:18;5.07;;;3.17;;
19111;SDS011;9688;51.906;8.376;2023-05-01T06:45:05;3.30;;;2.90;;
19111;SDS011;9688;51.906;8.376;2023-05-01T06:47:51;6.47;;;3.50;;
19111;SDS011;9688;51.906;8.376;2023-05-01T06:50:39;7.70;;;3.27;;
19111;SDS011;9688;51.906;8.376;2023-05-01T06:53:24;8.83;;;3.43;;
19111;SDS011;9688;51.906;8.376;2023-05-01T06:56:09;5.97;;;3.40;;
19111;SDS011;9688;51.906;8.376;2023-05-01T06:58:55;6.67;;;3.03;;
19111;SDS011;9688;51.906;8.376;2023-05-01T07:01:40;4.73;;;2.97;;
19111;SDS011;9688;51.906;8.376;2023-05-01T07:04:25;6.27;;;2.83;;
19111;SDS011;9688;51.906;8.376;2023-05-01T07:07:12;4.40;;;3.20;;
19111;SDS011;9688;51.906;8.376;2023-05-01T07:09:58;6.93;;;3.43;;
19111;SDS011;9688;51.906;8.376;2023-05-01T07:12:43;6.50;;;2.90;;
19111;SDS011;9688;51.906;8.376;2023-05-01T07:15:29;7.27;;;3.30;;
19111;SDS011;9688;51.906;8.376;2023-05-01T07:18:14;8.50;;;3.20;;
19111;SDS011;9688;51.906;8.376;2023-05-01T07:21:00;5.67;;;3.03;;
19111;SDS011;9688;51.906;8.376;2023-05-01T07:23:47;6.87;;;2.80;;
19111;SDS011;9688;51.906;8.376;2023-05-01T07:26:32;3.70;;;3.00;;
19111;SDS011;9688;51.906;8.376;2023-05-01T07:29:18;4.57;;;2.93;;
19111;SDS011;9688;51.906;8.376;2023-05-01T07:32:03;7.83;;;3.40;;
19111;SDS011;9688;51.906;8.376;2023-05-01T07:34:49;9.27;;;3.30;;
19111;SDS011;9688;51.906;8.376;2023-05-01T07:37:35;13.53;;;3.23;;
19111;SDS011;9688;51.906;8.376;2023-05-01T07:40:22;4.90;;;3.13;;
19111;SDS011;9688;51.906;8.376;2023-05-01T07:43:07;7.50;;;3.37;;
19111;SDS011;9688;51.906;8.376;2023-05-01T07:45:54;4.17;;;2.80;;
19111;SDS011;9688;51.906;8.376;2023-05-01T07:48:41;4.80;;;2.93;;
19111;SDS011;9688;51.906;8.376;2023-05-01T07:51:27;4.80;;;3.27;;
19111;SDS011;9688;51.906;8.376;2023-05-01T07:54:12;7.50;;;3.37;;
19111;SDS011;9688;51.906;8.376;2023-05-01T07:57:00;6.33;;;3.27;;
19111;SDS011;9688;51.906;8.376;2023-05-01T07:59:47;7.40;;;3.20;;
19111;SDS011;9688;51.906;8.376;2023-05-01T08:02:33;5.97;;;3.30;;
19111;SDS011;9688;51.906;8.376;2023-05-01T08:05:19;3.67;;;2.90;;
19111;SDS011;9688;51.906;8.376;2023-05-01T08:08:05;4.83;;;3.23;;
19111;SDS011;9688;51.906;8.376;2023-05-01T08:10:50;7.90;;;3.00;;
19111;SDS011;9688;51.906;8.376;2023-05-01T08:13:37;7.43;;;3.40;;
19111;SDS011;9688;51.906;8.376;2023-05-01T08:16:23;5.13;;;2.60;;
19111;SDS011;9688;51.906;8.376;2023-05-01T08:19:08;6.43;;;3.30;;
19111;SDS011;9688;51.906;8.376;2023-05-01T08:21:54;4.97;;;2.60;;
19111;SDS011;9688;51.906;8.376;2023-05-01T08:24:39;4.33;;;3.07;;
19111;SDS011;9688;51.906;8.376;2023-05-01T08:27:25;5.60;;;3.03;;
19111;SDS011;9688;51.906;8.376;2023-05-01T08:30:13;5.33;;;3.10;;
19111;SDS011;9688;51.906;8.376;2023-05-01T08:32:59;4.53;;;3.00;;
19111;SDS011;9688;51.906;8.376;2023-05-01T08:35:44;3.47;;;2.83;;
19111;SDS011;9688;51.906;8.376;2023-05-01T08:38:31;3.90;;;3.00;;
19111;SDS011;9688;51.906;8.376;2023-05-01T08:41:18;5.40;;;2.80;;
19111;SDS011;9688;51.906;8.376;2023-05-01T08:44:06;5.03;;;2.80;;
19111;SDS011;9688;51.906;8.376;2023-05-01T08:46:57;5.60;;;2.50;;
19111;SDS011;9688;51.906;8.376;2023-05-01T08:49:55;7.37;;;2.73;;
19111;SDS011;9688;51.906;8.376;2023-05-01T08:52:41;4.70;;;2.50;;
19111;SDS011;9688;51.906;8.376;2023-05-01T08:55:27;6.27;;;2.37;;
19111;SDS011;9688;51.906;8.376;2023-05-01T08:58:14;3.50;;;2.33;;
19111;SDS011;9688;51.906;8.376;2023-05-01T09:01:02;5.87;;;3.33;;
19111;SDS011;9688;51.906;8.376;2023-05-01T09:03:50;4.10;;;2.50;;
19111;SDS011;9688;51.906;8.376;2023-05-01T09:06:37;6.03;;;2.60;;
19111;SDS011;9688;51.906;8.376;2023-05-01T09:09:23;3.63;;;2.47;;
19111;SDS011;9688;51.906;8.376;2023-05-01T09:12:11;2.57;;;2.37;;
19111;SDS011;9688;51.906;8.376;2023-05-01T09:15:02;7.57;;;2.83;;
19111;SDS011;9688;51.906;8.376;2023-05-01T09:17:50;3.63;;;2.43;;
19111;SDS011;9688;51.906;8.376;2023-05-01T09:20:37;4.63;;;2.57;;
19111;SDS011;9688;51.906;8.376;2023-05-01T09:23:23;4.23;;;2.33;;
19111;SDS011;9688;51.906;8.376;2023-05-01T09:26:08;4.00;;;2.53;;
19111;SDS011;9688;51.906;8.376;2023-05-01T09:28:55;4.63;;;2.40;;
19111;SDS011;9688;51.906;8.376;2023-05-01T09:31:41;2.50;;;2.30;;
19111;SDS011;9688;51.906;8.376;2023-05-01T09:34:27;3.40;;;2.60;;
19111;SDS011;9688;51.906;8.376;2023-05-01T09:37:23;3.03;;;2.40;;
19111;SDS011;9688;51.906;8.376;2023-05-01T09:40:13;3.87;;;2.43;;
19111;SDS011;9688;51.906;8.376;2023-05-01T09:42:59;5.63;;;2.40;;
19111;SDS011;9688;51.906;8.376;2023-05-01T09:45:58;3.93;;;2.30;;
19111;SDS011;9688;51.906;8.376;2023-05-01T09:48:51;6.57;;;2.50;;
19111;SDS011;9688;51.906;8.376;2023-05-01T09:51:38;2.40;;;2.17;;
19111;SDS011;9688;51.906;8.376;2023-05-01T09:54:26;4.40;;;2.30;;
19111;SDS011;9688;51.906;8.376;2023-05-01T09:57:12;3.80;;;2.10;;
19111;SDS011;9688;51.906;8.376;2023-05-01T10:00:05;2.73;;;2.10;;
19111;SDS011;9688;51.906;8.376;2023-05-01T10:02:53;3.23;;;1.97;;
19111;SDS011;9688;51.906;8.376;2023-05-01T10:05:42;2.83;;;2.00;;
19111;SDS011;9688;51.906;8.376;2023-05-01T10:08:42;2.90;;;2.30;;
19111;SDS011;9688;51.906;8.376;2023-05-01T10:11:31;8.67;;;3.63;;
19111;SDS011;9688;51.906;8.376;2023-05-01T10:14:32;5.30;;;3.50;;
19111;SDS011;9688;51.906;8.376;2023-05-01T10:17:22;3.40;;;1.97;;
19111;SDS011;9688;51.906;8.376;2023-05-01T10:20:10;1.60;;;1.40;;
19111;SDS011;9688;51.906;8.376;2023-05-01T10:22:59;2.57;;;1.77;;
19111;SDS011;9688;51.906;8.376;2023-05-01T10:25:46;3.33;;;1.67;;
19111;SDS011;9688;51.906;8.376;2023-05-01T10:28:37;1.90;;;1.80;;
19111;SDS011;9688;51.906;8.376;2023-05-01T10:31:24;2.10;;;1.77;;
19111;SDS011;9688;51.906;8.376;2023-05-01T10:34:14;2.70;;;1.83;;
19111;SDS011;9688;51.906;8.376;2023-05-01T10:37:04;2.13;;;1.80;;
19111;SDS011;9688;51.906;8.376;2023-05-01T10:39:57;2.80;;;1.80;;
19111;SDS011;9688;51.906;8.376;2023-05-01T10:49:17;3.00;;;1.80;;
19111;SDS011;9688;51.906;8.376;2023-05-01T10:52:04;2.13;;;2.03;;
19111;SDS011;9688;51.906;8.376;2023-05-01T10:54:50;1.87;;;1.77;;
19111;SDS011;9688;51.906;8.376;2023-05-01T10:57:42;2.63;;;1.80;;
19111;SDS011;9688;51.906;8.376;2023-05-01T11:00:28;1.97;;;1.87;;
19111;SDS011;9688;51.906;8.376;2023-05-01T11:03:34;1.80;;;1.70;;
19111;SDS011;9688;51.906;8.376;2023-05-01T11:06:23;2.80;;;1.90;;
19111;SDS011;9688;51.906;8.376;2023-05-01T11:15:39;6.67;;;1.77;;
19111;SDS011;9688;51.906;8.376;2023-05-01T11:21:33;1.63;;;1.50;;
19111;SDS011;9688;51.906;8.376;2023-05-01T11:24:24;2.15;;;2.00;;
19111;SDS011;9688;51.906;8.376;2023-05-01T11:27:15;3.73;;;1.90;;
19111;SDS011;9688;51.906;8.376;2023-05-01T11:30:07;2.97;;;1.83;;
19111;SDS011;9688;51.906;8.376;2023-05-01T11:33:03;2.83;;;1.80;;
19111;SDS011;9688;51.906;8.376;2023-05-01T11:35:56;1.60;;;1.50;;
19111;SDS011;9688;51.906;8.376;2023-05-01T11:38:49;1.73;;;1.63;;
19111;SDS011;9688;51.906;8.376;2023-05-01T11:41:35;2.43;;;1.70;;
19111;SDS011;9688;51.906;8.376;2023-05-01T11:44:20;1.75;;;1.65;;
19111;SDS011;9688;51.906;8.376;2023-05-01T11:47:06;3.90;;;1.50;;
19111;SDS011;9688;51.906;8.376;2023-05-01T11:49:55;2.15;;;1.77;;
19111;SDS011;9688;51.906;8.376;2023-05-01T11:52:43;2.03;;;1.87;;
19111;SDS011;9688;51.906;8.376;2023-05-01T11:55:32;2.85;;;1.77;;
19111;SDS011;9688;51.906;8.376;2023-05-01T11:58:34;1.60;;;1.50;;
19111;SDS011;9688;51.906;8.376;2023-05-01T12:01:32;2.10;;;1.90;;
19111;SDS011;9688;51.906;8.376;2023-05-01T12:04:24;1.97;;;1.70;;
19111;SDS011;9688;51.906;8.376;2023-05-01T12:07:18;1.70;;;1.60;;
19111;SDS011;9688;51.906;8.376;2023-05-01T12:10:06;3.53;;;2.20;;
19111;SDS011;9688;51.906;8.376;2023-05-01T12:12:53;2.23;;;1.77;;
19111;SDS011;9688;51.906;8.376;2023-05-01T12:15:40;2.37;;;1.80;;
19111;SDS011;9688;51.906;8.376;2023-05-01T12:18:29;1.70;;;1.60;;
19111;SDS011;9688;51.906;8.376;2023-05-01T12:21:15;2.30;;;1.57;;
19111;SDS011;9688;51.906;8.376;2023-05-01T12:24:08;2.00;;;1.70;;
19111;SDS011;9688;51.906;8.376;2023-05-01T12:27:00;3.08;;;1.63;;
19111;SDS011;9688;51.906;8.376;2023-05-01T12:29:47;2.00;;;1.63;;
19111;SDS011;9688;51.906;8.376;2023-05-01T12:32:33;1.83;;;1.73;;
19111;SDS011;9688;51.906;8.376;2023-05-01T12:35:22;6.27;;;1.90;;
19111;SDS011;9688;51.906;8.376;2023-05-01T12:38:14;2.00;;;1.90;;
19111;SDS011;9688;51.906;8.376;2023-05-01T12:41:01;3.08;;;1.77;;
19111;SDS011;9688;51.906;8.376;2023-05-01T12:43:51;1.47;;;1.37;;
19111;SDS011;9688;51.906;8.376;2023-05-01T12:46:36;2.57;;;1.53;;
19111;SDS011;9688;51.906;8.376;2023-05-01T12:49:22;1.43;;;1.33;;
19111;SDS011;9688;51.906;8.376;2023-05-01T12:52:08;3.00;;;1.90;;
19111;SDS011;9688;51.906;8.376;2023-05-01T12:55:00;1.70;;;1.60;;
19111;SDS011;9688;51.906;8.376;2023-05-01T12:57:50;2.15;;;1.48;;
19111;SDS011;9688;51.906;8.376;2023-05-01T13:00:42;2.35;;;1.80;;
19111;SDS011;9688;51.906;8.376;2023-05-01T13:03:31;4.55;;;1.67;;
19111;SDS011;9688;51.906;8.376;2023-05-01T13:06:17;1.52;;;1.30;;
19111;SDS011;9688;51.906;8.376;2023-05-01T13:09:06;2.25;;;1.48;;
19111;SDS011;9688;51.906;8.376;2023-05-01T13:11:57;1.65;;;1.55;;
19111;SDS011;9688;51.906;8.376;2023-05-01T13:14:45;1.70;;;1.30;;
19111;SDS011;9688;51.906;8.376;2023-05-01T13:17:33;1.25;;;1.15;;
19111;SDS011;9688;51.906;8.376;2023-05-01T13:20:24;4.75;;;1.40;;
19111;SDS011;9688;51.906;8.376;2023-05-01T13:23:13;0.90;;;0.90;;
19111;SDS011;9688;51.906;8.376;2023-05-01T13:25:59;1.33;;;1.00;;
19111;SDS011;9688;51.906;8.376;2023-05-01T13:28:49;0.70;;;0.70;;
19111;SDS011;9688;51.906;8.376;2023-05-01T13:31:34;1.10;;;0.80;;
19111;SDS011;9688;51.906;8.376;2023-05-01T13:34:23;4.03;;;1.52;;
19111;SDS011;9688;51.906;8.376;2023-05-01T13:37:11;1.00;;;1.00;;
19111;SDS011;9688;51.906;8.376;2023-05-01T13:39:58;0.98;;;0.93;;
19111;SDS011;9688;51.906;8.376;2023-05-01T13:42:45;2.40;;;1.20;;
19111;SDS011;9688;51.906;8.376;2023-05-01T13:45:33;3.45;;;1.17;;
19111;SDS011;9688;51.906;8.376;2023-05-01T13:48:18;2.38;;;1.17;;
19111;SDS011;9688;51.906;8.376;2023-05-01T13:51:05;1.38;;;1.10;;
19111;SDS011;9688;51.906;8.376;2023-05-01T13:53:51;1.60;;;1.10;;
19111;SDS011;9688;51.906;8.376;2023-05-01T13:56:38;1.50;;;1.40;;
19111;SDS011;9688;51.906;8.376;2023-05-01T13:59:26;1.10;;;1.00;;
19111;SDS011;9688;51.906;8.376;2023-05-01T14:02:23;0.95;;;0.90;;
19111;SDS011;9688;51.906;8.376;2023-05-01T14:05:10;1.30;;;1.20;;
19111;SDS011;9688;51.906;8.376;2023-05-01T14:07:58;2.47;;;1.30;;
19111;SDS011;9688;51.906;8.376;2023-05-01T14:10:45;1.95;;;1.10;;
19111;SDS011;9688;51.906;8.376;2023-05-01T14:13:31;1.10;;;1.10;;
19111;SDS011;9688;51.906;8.376;2023-05-01T14:16:19;1.10;;;1.10;;
19111;SDS011;9688;51.906;8.376;2023-05-01T14:19:07;0.97;;;0.90;;
19111;SDS011;9688;51.906;8.376;2023-05-01T14:21:53;1.03;;;1.03;;
19111;SDS011;9688;51.906;8.376;2023-05-01T14:24:40;1.10;;;1.10;;
19111;SDS011;9688;51.906;8.376;2023-05-01T14:27:26;1.00;;;1.00;;
19111;SDS011;9688;51.906;8.376;2023-05-01T14:30:17;1.60;;;1.05;;
19111;SDS011;9688;51.906;8.376;2023-05-01T14:33:09;1.05;;;1.05;;
19111;SDS011;9688;51.906;8.376;2023-05-01T14:35:56;3.85;;;1.50;;
19111;SDS011;9688;51.906;8.376;2023-05-01T14:38:42;3.70;;;1.20;;
19111;SDS011;9688;51.906;8.376;2023-05-01T14:41:33;1.13;;;1.10;;
19111;SDS011;9688;51.906;8.376;2023-05-01T14:44:22;1.02;;;1.00;;
19111;SDS011;9688;51.906;8.376;2023-05-01T14:47:11;2.70;;;1.35;;
19111;SDS011;9688;51.906;8.376;2023-05-01T14:49:58;2.20;;;1.20;;
19111;SDS011;9688;51.906;8.376;2023-05-01T14:52:44;0.95;;;0.95;;
19111;SDS011;9688;51.906;8.376;2023-05-01T14:55:30;1.13;;;1.02;;
19111;SDS011;9688;51.906;8.376;2023-05-01T14:58:18;0.73;;;0.73;;
19111;SDS011;9688;51.906;8.376;2023-05-01T15:01:04;1.30;;;1.20;;
19111;SDS011;9688;51.906;8.376;2023-05-01T15:22:12;3.40;;;1.10;;
19111;SDS011;9688;51.906;8.376;2023-05-01T15:24:59;2.73;;;1.00;;
19111;SDS011;9688;51.906;8.376;2023-05-01T15:27:45;1.20;;;1.10;;
19111;SDS011;9688;51.906;8.376;2023-05-01T15:30:33;1.95;;;1.40;;
19111;SDS011;9688;51.906;8.376;2023-05-01T15:33:18;1.65;;;1.30;;
19111;SDS011;9688;51.906;8.376;2023-05-01T15:36:04;2.63;;;1.50;;
19111;SDS011;9688;51.906;8.376;2023-05-01T15:38:51;0.98;;;0.90;;
19111;SDS011;9688;51.906;8.376;2023-05-01T15:41:37;1.00;;;1.00;;
19111;SDS011;9688;51.906;8.376;2023-05-01T15:44:23;1.10;;;1.10;;
19111;SDS011;9688;51.906;8.376;2023-05-01T15:47:10;0.80;;;0.80;;
19111;SDS011;9688;51.906;8.376;2023-05-01T15:49:56;2.70;;;0.88;;
19111;SDS011;9688;51.906;8.376;2023-05-01T15:52:43;0.90;;;0.90;;
19111;SDS011;9688;51.906;8.376;2023-05-01T15:55:30;1.07;;;0.90;;
19111;SDS011;9688;51.906;8.376;2023-05-01T15:58:16;0.90;;;0.90;;
19111;SDS011;9688;51.906;8.376;2023-05-01T16:01:02;1.17;;;1.10;;
19111;SDS011;9688;51.906;8.376;2023-05-01T16:03:48;1.00;;;1.00;;
19111;SDS011;9688;51.906;8.376;2023-05-01T16:06:34;0.90;;;0.90;;
19111;SDS011;9688;51.906;8.376;2023-05-01T16:09:19;1.80;;;1.10;;
19111;SDS011;9688;51.906;8.376;2023-05-01T16:12:08;1.23;;;1.10;;
19111;SDS011;9688;51.906;8.376;2023-05-01T16:14:54;1.63;;;1.07;;
19111;SDS011;9688;51.906;8.376;2023-05-01T16:17:41;2.10;;;1.00;;
19111;SDS011;9688;51.906;8.376;2023-05-01T16:20:28;1.30;;;1.30;;
19111;SDS011;9688;51.906;8.376;2023-05-01T16:23:18;1.40;;;1.30;;
19111;SDS011;9688;51.906;8.376;2023-05-01T16:26:05;1.33;;;1.00;;
19111;SDS011;9688;51.906;8.376;2023-05-01T16:28:53;1.63;;;1.20;;
19111;SDS011;9688;51.906;8.376;2023-05-01T16:31:43;1.37;;;1.30;;
19111;SDS011;9688;51.906;8.376;2023-05-01T16:34:32;1.37;;;1.30;;
19111;SDS011;9688;51.906;8.376;2023-05-01T16:37:21;1.47;;;1.33;;
19111;SDS011;9688;51.906;8.376;2023-05-01T16:40:15;2.43;;;1.70;;
19111;SDS011;9688;51.906;8.376;2023-05-01T16:43:01;1.40;;;1.40;;
19111;SDS011;9688;51.906;8.376;2023-05-01T16:45:50;1.43;;;1.33;;
19111;SDS011;9688;51.906;8.376;2023-05-01T16:48:36;2.23;;;1.50;;
19111;SDS011;9688;51.906;8.376;2023-05-01T16:51:24;1.60;;;1.30;;
19111;SDS011;9688;51.906;8.376;2023-05-01T16:54:11;3.80;;;1.40;;
19111;SDS011;9688;51.906;8.376;2023-05-01T16:56:57;2.07;;;1.43;;
19111;SDS011;9688;51.906;8.376;2023-05-01T16:59:44;2.00;;;1.50;;
19111;SDS011;9688;51.906;8.376;2023-05-01T17:02:33;1.83;;;1.53;;
19111;SDS011;9688;51.906;8.376;2023-05-01T17:05:21;1.30;;;1.30;;
19111;SDS011;9688;51.906;8.376;2023-05-01T17:08:11;2.10;;;1.43;;
19111;SDS011;9688;51.906;8.376;2023-05-01T17:10:56;2.43;;;1.70;;
19111;SDS011;9688;51.906;8.376;2023-05-01T17:13:42;2.10;;;1.57;;
19111;SDS011;9688;51.906;8.376;2023-05-01T17:16:29;1.50;;;1.40;;
19111;SDS011;9688;51.906;8.376;2023-05-01T17:19:18;1.80;;;1.70;;
19111;SDS011;9688;51.906;8.376;2023-05-01T17:22:03;1.53;;;1.40;;
19111;SDS011;9688;51.906;8.376;2023-05-01T17:24:49;2.23;;;1.47;;
19111;SDS011;9688;51.906;8.376;2023-05-01T17:27:35;2.27;;;1.70;;
19111;SDS011;9688;51.906;8.376;2023-05-01T17:30:21;2.10;;;1.70;;
19111;SDS011;9688;51.906;8.376;2023-05-01T17:33:07;1.47;;;1.30;;
19111;SDS011;9688;51.906;8.376;2023-05-01T17:35:55;1.30;;;1.20;;
19111;SDS011;9688;51.906;8.376;2023-05-01T17:38:43;3.10;;;1.20;;
19111;SDS011;9688;51.906;8.376;2023-05-01T17:41:29;1.33;;;1.27;;
19111;SDS011;9688;51.906;8.376;2023-05-01T17:44:17;1.00;;;1.00;;
19111;SDS011;9688;51.906;8.376;2023-05-01T17:47:03;1.63;;;1.30;;